Time;durP1;ratioP1;P1;durP2;ratioP2;P2;SDS_P1;SDS_P2;PMS_P1;PMS_P2;Temp;Humidity;BMP_temperature;BMP_pressure;BME280_temperature;BME280_humidity;BME280_pressure;Samples;Min_cycle;Max_cycle;Signal;HPM_P1;HPM_P2
2022/06/09 00:01:22;;;;;;;0.87;0.87;;;;;;;;;;4992544;28;20193;-77
2022/06/09 00:03:56;;;;;;;2.07;0.90;;;;;;;;;;4992067;28;20183;-77
2022/06/09 00:06:23;;;;;;;0.80;0.80;;;;;;;;;;4991247;28;20424;-77
2022/06/09 00:08:49;;;;;;;1.43;1.07;;;;;;;;;;4990201;28;20435;-77
2022/06/09 00:11:16;;;;;;;0.50;0.50;;;;;;;;;;4990056;28;20179;-77
2022/06/09 00:13:42;;;;;;;0.40;0.40;;;;;;;;;;4991822;28;20444;-77
2022/06/09 00:16:09;;;;;;;0.40;0.40;;;;;;;;;;4990268;28;20273;-78
2022/06/09 00:18:34;;;;;;;0.53;0.47;;;;;;;;;;4991279;28;20194;-77
2022/06/09 00:20:59;;;;;;;1.00;0.60;;;;;;;;;;4989581;28;20187;-78
2022/06/09 00:23:25;;;;;;;0.57;0.57;;;;;;;;;;5005324;28;20176;-78
2022/06/09 00:25:50;;;;;;;2.50;1.00;;;;;;;;;;4997165;28;20180;-77
2022/06/09 00:28:16;;;;;;;0.90;0.87;;;;;;;;;;5001678;28;20196;-78
2022/06/09 00:30:41;;;;;;;0.60;0.60;;;;;;;;;;4984074;28;20186;-77
2022/06/09 00:33:06;;;;;;;2.37;0.90;;;;;;;;;;4990478;28;20178;-78
2022/06/09 00:35:31;;;;;;;2.00;0.73;;;;;;;;;;4993858;28;20179;-78
2022/06/09 00:37:57;;;;;;;1.10;0.70;;;;;;;;;;4991873;28;20400;-78
2022/06/09 00:40:22;;;;;;;0.70;0.70;;;;;;;;;;4989353;28;20257;-77
2022/06/09 00:42:47;;;;;;;0.80;0.70;;;;;;;;;;4990880;28;20191;-78
2022/06/09 00:45:22;;;;;;;0.93;0.83;;;;;;;;;;4989732;28;20336;-78
2022/06/09 00:47:47;;;;;;;1.20;1.10;;;;;;;;;;5007183;28;20292;-78
2022/06/09 00:50:15;;;;;;;1.33;0.90;;;;;;;;;;4991839;28;20381;-78
2022/06/09 00:52:44;;;;;;;0.93;0.80;;;;;;;;;;4997769;28;20174;-78
2022/06/09 00:55:15;;;;;;;0.80;0.80;;;;;;;;;;4994622;28;20218;-78
2022/06/09 00:57:48;;;;;;;2.10;0.70;;;;;;;;;;4997098;28;20178;-78
2022/06/09 01:00:28;;;;;;;2.43;1.43;;;;;;;;;;4996046;28;20178;-78
2022/06/09 01:02:55;;;;;;;1.40;1.00;;;;;;;;;;4994156;28;20181;-78
2022/06/09 01:05:21;;;;;;;1.17;1.10;;;;;;;;;;4994856;28;20189;-78
2022/06/09 01:07:49;;;;;;;1.17;1.07;;;;;;;;;;4986672;28;20209;-78
2022/06/09 01:10:14;;;;;;;1.90;1.00;;;;;;;;;;4994700;28;20170;-78
2022/06/09 01:12:42;;;;;;;1.20;0.90;;;;;;;;;;5002305;28;20233;-78
2022/06/09 01:15:16;;;;;;;1.10;1.00;;;;;;;;;;5013465;28;20390;-77
2022/06/09 01:18:01;;;;;;;0.80;0.80;;;;;;;;;;4988102;28;20188;-78
2022/06/09 01:20:30;;;;;;;0.87;0.87;;;;;;;;;;4993872;28;20202;-78
2022/06/09 01:22:56;;;;;;;1.97;1.00;;;;;;;;;;4988438;28;20280;-78
2022/06/09 01:25:40;;;;;;;1.50;1.40;;;;;;;;;;4994297;28;20229;-77
2022/06/09 01:28:08;;;;;;;1.20;1.10;;;;;;;;;;4994085;28;20209;-77
2022/06/09 01:30:33;;;;;;;1.53;1.43;;;;;;;;;;4983624;28;20183;-77
2022/06/09 01:33:01;;;;;;;2.03;1.40;;;;;;;;;;5008754;28;20212;-78
2022/06/09 01:35:46;;;;;;;1.40;1.30;;;;;;;;;;4991514;28;20263;-78
2022/06/09 01:38:11;;;;;;;3.33;1.50;;;;;;;;;;4991403;28;20179;-78
2022/06/09 01:40:36;;;;;;;2.77;1.87;;;;;;;;;;4996585;28;20185;-78
2022/06/09 01:43:04;;;;;;;3.20;1.53;;;;;;;;;;4985138;28;20182;-78
2022/06/09 01:45:48;;;;;;;2.00;1.50;;;;;;;;;;4987208;28;20230;-78
2022/06/09 01:48:15;;;;;;;3.47;1.70;;;;;;;;;;4993742;28;20301;-78
2022/06/09 01:50:52;;;;;;;5.40;2.10;;;;;;;;;;4989517;28;20198;-78
2022/06/09 01:53:23;;;;;;;2.27;1.70;;;;;;;;;;4985951;28;20185;-78
2022/06/09 01:55:52;;;;;;;3.17;2.00;;;;;;;;;;4996167;28;20183;-78
2022/06/09 01:58:19;;;;;;;1.80;1.70;;;;;;;;;;5011592;28;20183;-78
2022/06/09 02:00:45;;;;;;;2.53;1.93;;;;;;;;;;4995256;28;20221;-78
2022/06/09 02:03:16;;;;;;;1.93;1.77;;;;;;;;;;4991260;28;20193;-78
2022/06/09 02:05:47;;;;;;;3.27;2.17;;;;;;;;;;4994623;28;20194;-77
2022/06/09 02:08:14;;;;;;;3.17;1.83;;;;;;;;;;4992527;28;20196;-77
2022/06/09 02:10:46;;;;;;;2.97;2.40;;;;;;;;;;4994295;28;20178;-78
2022/06/09 02:13:18;;;;;;;2.97;2.70;;;;;;;;;;4991009;28;20179;-78
2022/06/09 02:15:48;;;;;;;5.33;2.83;;;;;;;;;;4994734;28;20190;-78
2022/06/09 02:18:15;;;;;;;2.37;2.17;;;;;;;;;;4991111;28;20190;-78
2022/06/09 02:20:42;;;;;;;3.70;2.33;;;;;;;;;;4991714;28;20181;-78
2022/06/09 02:23:11;;;;;;;2.60;2.40;;;;;;;;;;4993847;28;20236;-78
2022/06/09 02:25:37;;;;;;;3.07;2.17;;;;;;;;;;5003048;28;20265;-78
2022/06/09 02:28:03;;;;;;;3.87;2.90;;;;;;;;;;5002721;28;20206;-78
2022/06/09 02:30:28;;;;;;;3.17;2.30;;;;;;;;;;5005032;28;20194;-78
2022/06/09 02:32:53;;;;;;;3.97;2.53;;;;;;;;;;4990560;28;20232;-78
2022/06/09 02:35:19;;;;;;;3.20;2.23;;;;;;;;;;4989455;28;20208;-78
2022/06/09 02:37:44;;;;;;;6.67;2.50;;;;;;;;;;4995539;28;20186;-78
2022/06/09 02:40:09;;;;;;;3.40;3.07;;;;;;;;;;5002919;28;20178;-78
2022/06/09 02:42:35;;;;;;;4.13;2.10;;;;;;;;;;5004200;28;20228;-78
2022/06/09 02:45:02;;;;;;;3.57;2.63;;;;;;;;;;4992221;28;20239;-78
2022/06/09 02:47:27;;;;;;;3.83;2.10;;;;;;;;;;4987868;28;20255;-76
2022/06/09 02:49:52;;;;;;;2.87;2.13;;;;;;;;;;4992244;28;20340;-77
2022/06/09 02:52:18;;;;;;;2.90;2.60;;;;;;;;;;4993327;28;20178;-78
2022/06/09 02:54:43;;;;;;;3.17;2.43;;;;;;;;;;5008665;28;20185;-77
2022/06/09 02:57:08;;;;;;;3.43;2.33;;;;;;;;;;5004657;28;20180;-77
2022/06/09 02:59:33;;;;;;;4.17;2.40;;;;;;;;;;5021593;28;20187;-78
2022/06/09 03:01:59;;;;;;;5.60;2.67;;;;;;;;;;4992604;28;20192;-78
2022/06/09 03:04:24;;;;;;;4.13;2.43;;;;;;;;;;4993691;28;20271;-77
2022/06/09 03:06:49;;;;;;;3.33;2.80;;;;;;;;;;5017187;28;20190;-78
2022/06/09 03:09:14;;;;;;;4.33;2.93;;;;;;;;;;5008598;28;20206;-78
2022/06/09 03:11:39;;;;;;;3.60;2.80;;;;;;;;;;4990306;28;20202;-78
2022/06/09 03:14:05;;;;;;;5.10;2.63;;;;;;;;;;4992351;28;20489;-78
2022/06/09 03:16:30;;;;;;;3.57;3.00;;;;;;;;;;5008332;28;20213;-78
2022/06/09 03:18:55;;;;;;;3.63;2.47;;;;;;;;;;5010339;28;20184;-78
2022/06/09 03:21:21;;;;;;;2.67;2.33;;;;;;;;;;4983852;28;20186;-78
2022/06/09 03:23:46;;;;;;;2.97;2.63;;;;;;;;;;5002968;28;20191;-78
2022/06/09 03:26:11;;;;;;;3.33;2.50;;;;;;;;;;5009549;28;20185;-77
2022/06/09 03:28:37;;;;;;;2.80;2.40;;;;;;;;;;5017470;28;20215;-78
2022/06/09 03:31:02;;;;;;;4.83;2.40;;;;;;;;;;5001366;28;20257;-77
2022/06/09 03:33:28;;;;;;;4.97;2.50;;;;;;;;;;4986748;28;20190;-78
2022/06/09 03:35:53;;;;;;;5.03;2.40;;;;;;;;;;4989158;28;20191;-78
2022/06/09 03:38:18;;;;;;;3.57;2.10;;;;;;;;;;4984606;28;20210;-78
2022/06/09 03:40:43;;;;;;;6.27;3.33;;;;;;;;;;5004567;28;20182;-78
2022/06/09 03:43:09;;;;;;;2.57;2.37;;;;;;;;;;4988348;28;20222;-78
2022/06/09 03:45:34;;;;;;;2.73;2.10;;;;;;;;;;5020497;28;20313;-78
2022/06/09 03:48:00;;;;;;;2.77;2.50;;;;;;;;;;4987370;28;20209;-78
2022/06/09 03:50:26;;;;;;;3.80;2.30;;;;;;;;;;4985245;28;20242;-78
2022/06/09 03:52:52;;;;;;;3.97;2.70;;;;;;;;;;4992662;28;20189;-78
2022/06/09 03:55:17;;;;;;;3.13;2.80;;;;;;;;;;5009511;28;20179;-78
2022/06/09 03:57:42;;;;;;;4.17;2.40;;;;;;;;;;4993316;28;20213;-78
2022/06/09 04:00:09;;;;;;;2.93;2.60;;;;;;;;;;5010220;28;20178;-78
2022/06/09 04:02:34;;;;;;;3.70;2.40;;;;;;;;;;4998629;28;20177;-77
2022/06/09 04:04:59;;;;;;;2.63;2.43;;;;;;;;;;4991699;28;20242;-78
2022/06/09 04:07:25;;;;;;;6.37;2.63;;;;;;;;;;4987559;28;20179;-78
2022/06/09 04:09:50;;;;;;;3.43;2.70;;;;;;;;;;5008231;28;20225;-78
2022/06/09 04:12:16;;;;;;;5.10;2.47;;;;;;;;;;4990726;28;20177;-78
2022/06/09 04:14:42;;;;;;;3.20;2.90;;;;;;;;;;5008958;28;20511;-78
2022/06/09 04:17:08;;;;;;;6.40;3.33;;;;;;;;;;4989252;28;20189;-78
2022/06/09 04:19:33;;;;;;;5.23;2.37;;;;;;;;;;4987755;28;20237;-78
2022/06/09 04:21:58;;;;;;;2.83;2.57;;;;;;;;;;4990423;28;20204;-78
2022/06/09 04:24:24;;;;;;;3.07;2.47;;;;;;;;;;4991032;28;20272;-78
2022/06/09 04:26:49;;;;;;;2.80;2.60;;;;;;;;;;4989908;28;20192;-78
2022/06/09 04:29:14;;;;;;;3.57;3.27;;;;;;;;;;5003868;28;20240;-78
2022/06/09 04:31:40;;;;;;;5.63;3.17;;;;;;;;;;4990078;28;20185;-78
2022/06/09 04:34:05;;;;;;;4.57;2.50;;;;;;;;;;4989855;28;20176;-78
2022/06/09 04:36:31;;;;;;;3.50;2.53;;;;;;;;;;5010424;28;20220;-77
2022/06/09 04:38:56;;;;;;;11.77;5.83;;;;;;;;;;4983136;28;20182;-77
2022/06/09 04:41:21;;;;;;;3.27;2.80;;;;;;;;;;4985354;28;20190;-78
2022/06/09 04:43:47;;;;;;;5.10;2.70;;;;;;;;;;4990402;28;20221;-78
2022/06/09 04:46:14;;;;;;;5.10;3.03;;;;;;;;;;4990298;28;20241;-78
2022/06/09 04:48:39;;;;;;;2.93;2.57;;;;;;;;;;4987396;28;20199;-78
2022/06/09 04:51:05;;;;;;;4.87;2.60;;;;;;;;;;4989650;28;20205;-78
2022/06/09 04:53:32;;;;;;;4.03;3.10;;;;;;;;;;5000277;28;20179;-77
2022/06/09 04:55:58;;;;;;;3.70;3.40;;;;;;;;;;4992893;28;20174;-77
2022/06/09 04:58:24;;;;;;;4.40;3.30;;;;;;;;;;5003483;28;20189;-78
2022/06/09 05:00:49;;;;;;;3.27;2.90;;;;;;;;;;4993519;28;20178;-77
2022/06/09 05:03:14;;;;;;;3.87;3.00;;;;;;;;;;4990969;28;20190;-77
2022/06/09 05:05:44;;;;;;;4.00;2.83;;;;;;;;;;5009455;28;20209;-77
2022/06/09 05:08:11;;;;;;;3.70;3.17;;;;;;;;;;4991818;28;20251;-77
2022/06/09 05:10:37;;;;;;;3.87;2.63;;;;;;;;;;4989657;28;20265;-77
2022/06/09 05:13:05;;;;;;;5.13;4.63;;;;;;;;;;4988253;28;20268;-77
2022/06/09 05:15:31;;;;;;;5.20;2.63;;;;;;;;;;4993418;28;20235;-77
2022/06/09 05:17:59;;;;;;;2.73;2.50;;;;;;;;;;4989760;28;20178;-77
2022/06/09 05:20:25;;;;;;;6.93;2.93;;;;;;;;;;4990595;28;20273;-77
2022/06/09 05:22:50;;;;;;;4.60;3.00;;;;;;;;;;4984932;28;20282;-77
2022/06/09 05:25:16;;;;;;;2.57;2.40;;;;;;;;;;4995840;28;20192;-77
2022/06/09 05:27:44;;;;;;;3.87;2.70;;;;;;;;;;4984791;28;20232;-77
2022/06/09 05:30:11;;;;;;;7.33;3.60;;;;;;;;;;5012669;28;20268;-77
2022/06/09 05:32:37;;;;;;;6.63;3.33;;;;;;;;;;5010785;28;20177;-77
2022/06/09 05:35:02;;;;;;;2.77;2.53;;;;;;;;;;4991981;28;20232;-77
2022/06/09 05:44:50;;;;;;;3.67;3.10;;;;;;;;;;4990701;28;20182;-77
2022/06/09 05:45:40;;;;;;;6.33;2.90;;;;;;;;;;5010616;28;20296;-77
2022/06/09 05:48:06;;;;;;;3.20;2.40;;;;;;;;;;4982760;28;20288;-77
2022/06/09 05:50:31;;;;;;;5.77;3.07;;;;;;;;;;5029131;28;20198;-77
2022/06/09 05:52:56;;;;;;;2.70;2.50;;;;;;;;;;5005290;28;20174;-77
2022/06/09 05:55:21;;;;;;;4.60;2.83;;;;;;;;;;4995188;28;20181;-77
2022/06/09 05:57:47;;;;;;;7.37;3.87;;;;;;;;;;5022479;28;20188;-77
2022/06/09 06:00:14;;;;;;;3.60;2.53;;;;;;;;;;5028457;28;20276;-77
2022/06/09 06:02:39;;;;;;;7.33;2.47;;;;;;;;;;4993108;28;20179;-77
2022/06/09 06:06:33;;;;;;;5.07;2.40;;;;;;;;;;5021093;28;20526;-77
2022/06/09 06:07:50;;;;;;;4.37;2.17;;;;;;;;;;5006284;28;20228;-77
2022/06/09 06:10:15;;;;;;;6.30;2.47;;;;;;;;;;4993469;28;20268;-77
2022/06/09 06:12:40;;;;;;;7.27;2.40;;;;;;;;;;5026495;28;20178;-77
2022/06/09 06:15:06;;;;;;;4.80;2.20;;;;;;;;;;4988936;28;20188;-77
2022/06/09 06:17:31;;;;;;;5.20;2.80;;;;;;;;;;4990329;28;20232;-77
2022/06/09 06:19:56;;;;;;;3.80;1.90;;;;;;;;;;4992476;28;20235;-77
2022/06/09 06:22:22;;;;;;;3.57;2.20;;;;;;;;;;4999569;28;20182;-78
2022/06/09 06:24:47;;;;;;;6.80;2.03;;;;;;;;;;5005193;28;20178;-78
2022/06/09 06:27:12;;;;;;;3.07;2.20;;;;;;;;;;4989851;28;20179;-78
2022/06/09 06:29:37;;;;;;;3.53;2.20;;;;;;;;;;5006735;28;20212;-78
2022/06/09 06:32:03;;;;;;;5.57;2.10;;;;;;;;;;4988053;28;20193;-77
2022/06/09 06:34:28;;;;;;;5.27;2.30;;;;;;;;;;4988938;28;20178;-77
2022/06/09 06:36:53;;;;;;;2.80;1.87;;;;;;;;;;5008039;28;20215;-77
2022/06/09 06:39:19;;;;;;;4.50;2.10;;;;;;;;;;4986851;28;20189;-78
2022/06/09 06:41:44;;;;;;;4.93;2.40;;;;;;;;;;5011808;28;20183;-78
2022/06/09 06:44:09;;;;;;;4.33;2.00;;;;;;;;;;4992120;28;20187;-78
2022/06/09 06:46:35;;;;;;;6.67;2.33;;;;;;;;;;4989302;28;20266;-78
2022/06/09 06:49:00;;;;;;;1.87;1.60;;;;;;;;;;4988003;28;20234;-78
2022/06/09 06:51:25;;;;;;;5.10;1.90;;;;;;;;;;4990324;28;20190;-78
2022/06/09 06:53:50;;;;;;;4.60;1.70;;;;;;;;;;5008492;28;20216;-78
2022/06/09 06:56:16;;;;;;;2.43;1.90;;;;;;;;;;4988903;28;20209;-78
2022/06/09 06:58:42;;;;;;;4.50;1.80;;;;;;;;;;4989447;28;20183;-77
2022/06/09 07:01:07;;;;;;;2.80;1.73;;;;;;;;;;4988169;28;20269;-78
2022/06/09 07:03:33;;;;;;;5.23;2.13;;;;;;;;;;4990887;28;20280;-78
2022/06/09 07:05:58;;;;;;;3.23;2.07;;;;;;;;;;4995131;28;20211;-78
2022/06/09 07:08:24;;;;;;;9.50;2.50;;;;;;;;;;4993559;28;20210;-78
2022/06/09 07:10:50;;;;;;;5.40;2.30;;;;;;;;;;4994255;28;20273;-78
2022/06/09 07:13:15;;;;;;;8.17;2.33;;;;;;;;;;4988610;28;20206;-77
2022/06/09 07:15:40;;;;;;;4.63;1.90;;;;;;;;;;4995849;28;20176;-78
2022/06/09 07:18:06;;;;;;;2.97;1.90;;;;;;;;;;4989012;28;20187;-78
2022/06/09 07:20:31;;;;;;;3.77;1.80;;;;;;;;;;4989003;28;20221;-78
2022/06/09 07:22:56;;;;;;;4.00;1.80;;;;;;;;;;4987523;28;20248;-77
2022/06/09 07:25:26;;;;;;;7.67;2.70;;;;;;;;;;4991163;28;20187;-78
2022/06/09 07:27:52;;;;;;;4.03;1.63;;;;;;;;;;4989693;28;20250;-78
2022/06/09 07:30:19;;;;;;;5.00;1.70;;;;;;;;;;4989986;28;20172;-78
2022/06/09 07:32:44;;;;;;;5.50;2.27;;;;;;;;;;4988268;28;20195;-78
2022/06/09 07:35:11;;;;;;;3.10;2.00;;;;;;;;;;5004284;28;20186;-78
2022/06/09 07:37:38;;;;;;;3.47;2.00;;;;;;;;;;4993931;28;20176;-78
2022/06/09 07:40:04;;;;;;;3.63;1.50;;;;;;;;;;4985645;28;20195;-78
2022/06/09 07:42:29;;;;;;;3.83;1.70;;;;;;;;;;4984250;28;20190;-78
2022/06/09 07:44:55;;;;;;;3.33;2.00;;;;;;;;;;4992074;28;20171;-77
2022/06/09 07:47:20;;;;;;;3.83;1.50;;;;;;;;;;4986627;28;20186;-78
2022/06/09 07:49:45;;;;;;;2.93;1.50;;;;;;;;;;5006222;28;20215;-78
2022/06/09 07:52:11;;;;;;;4.33;1.53;;;;;;;;;;4986599;28;20232;-77
2022/06/09 07:54:36;;;;;;;2.87;1.73;;;;;;;;;;4993053;28;20187;-78
2022/06/09 07:57:02;;;;;;;1.50;1.40;;;;;;;;;;4993426;28;20264;-77
2022/06/09 07:59:27;;;;;;;6.13;1.60;;;;;;;;;;4993723;28;20186;-77
2022/06/09 08:01:53;;;;;;;1.70;1.60;;;;;;;;;;5019228;28;20188;-78
2022/06/09 08:04:18;;;;;;;4.13;2.53;;;;;;;;;;4986914;28;20211;-78
2022/06/09 08:06:43;;;;;;;2.90;1.67;;;;;;;;;;5002616;28;20192;-78
2022/06/09 08:09:08;;;;;;;5.70;1.73;;;;;;;;;;5006177;28;20202;-78
2022/06/09 08:11:35;;;;;;;2.53;1.43;;;;;;;;;;5018881;28;20172;-78
2022/06/09 08:14:03;;;;;;;3.23;1.67;;;;;;;;;;4987922;28;20184;-78
2022/06/09 08:16:28;;;;;;;5.80;1.63;;;;;;;;;;4991333;28;20180;-78
2022/06/09 08:18:54;;;;;;;7.13;2.00;;;;;;;;;;5008953;28;20192;-78
2022/06/09 08:21:19;;;;;;;3.40;1.53;;;;;;;;;;4993533;28;20221;-77
2022/06/09 08:23:44;;;;;;;1.83;1.50;;;;;;;;;;5004766;28;20226;-78
2022/06/09 08:26:10;;;;;;;5.07;2.03;;;;;;;;;;4989956;28;20201;-77
2022/06/09 08:28:35;;;;;;;2.43;1.17;;;;;;;;;;5008754;28;20207;-78
2022/06/09 08:31:00;;;;;;;4.73;1.83;;;;;;;;;;4983231;28;20249;-78
2022/06/09 08:33:26;;;;;;;3.53;1.50;;;;;;;;;;5005489;28;20185;-77
2022/06/09 08:35:52;;;;;;;2.57;1.17;;;;;;;;;;4991970;28;20177;-77
2022/06/09 08:38:17;;;;;;;2.20;1.60;;;;;;;;;;4985310;28;20188;-77
2022/06/09 08:40:42;;;;;;;4.23;1.33;;;;;;;;;;4985214;28;20180;-78
2022/06/09 08:43:21;;;;;;;1.47;1.30;;;;;;;;;;5003368;28;20207;-78
2022/06/09 08:45:47;;;;;;;2.60;1.70;;;;;;;;;;4986942;28;20240;-78
2022/06/09 08:48:20;;;;;;;2.97;1.80;;;;;;;;;;4981776;28;20198;-77
2022/06/09 08:51:04;;;;;;;2.27;1.20;;;;;;;;;;4985227;28;20200;-77
2022/06/09 08:53:32;;;;;;;4.27;1.50;;;;;;;;;;5009158;28;20174;-77
2022/06/09 08:55:59;;;;;;;2.67;1.77;;;;;;;;;;4989681;28;20259;-77
2022/06/09 08:58:34;;;;;;;2.63;2.07;;;;;;;;;;4995050;28;20199;-77
2022/06/09 09:01:04;;;;;;;4.67;1.77;;;;;;;;;;4991694;28;20188;-78
2022/06/09 09:03:36;;;;;;;3.33;1.40;;;;;;;;;;4993781;28;20187;-78
2022/06/09 09:06:09;;;;;;;2.47;1.60;;;;;;;;;;4995045;28;20263;-77
2022/06/09 09:08:36;;;;;;;2.97;1.30;;;;;;;;;;4993294;28;20207;-77
2022/06/09 09:11:20;;;;;;;2.43;1.40;;;;;;;;;;4991435;28;20178;-77
2022/06/09 09:13:52;;;;;;;3.47;1.40;;;;;;;;;;5007373;28;20182;-78
2022/06/09 09:16:19;;;;;;;3.37;1.70;;;;;;;;;;4996672;28;20179;-78
2022/06/09 09:18:52;;;;;;;3.20;1.90;;;;;;;;;;4992061;28;20195;-77
2022/06/09 09:21:41;;;;;;;5.13;1.67;;;;;;;;;;5009257;28;20180;-77
2022/06/09 09:24:25;;;;;;;2.67;1.50;;;;;;;;;;4988363;28;20187;-77
2022/06/09 09:26:59;;;;;;;2.33;1.50;;;;;;;;;;4990710;28;20185;-77
2022/06/09 09:29:30;;;;;;;7.37;2.03;;;;;;;;;;4988328;28;20223;-77
2022/06/09 09:31:57;;;;;;;3.97;1.47;;;;;;;;;;4996972;28;20232;-77
2022/06/09 09:34:25;;;;;;;4.70;1.87;;;;;;;;;;5012804;28;20195;-77
2022/06/09 09:36:55;;;;;;;8.13;1.77;;;;;;;;;;4993219;28;20184;-77
2022/06/09 09:39:40;;;;;;;3.63;1.70;;;;;;;;;;4995280;28;20179;-77
2022/06/09 09:42:10;;;;;;;4.10;1.70;;;;;;;;;;4995867;28;20188;-77
2022/06/09 09:44:36;;;;;;;3.03;1.60;;;;;;;;;;4996488;28;20180;-77
2022/06/09 09:47:02;;;;;;;2.13;1.43;;;;;;;;;;4995326;28;20714;-77
2022/06/09 09:49:48;;;;;;;4.33;1.60;;;;;;;;;;4995460;28;20231;-77
2022/06/09 09:52:29;;;;;;;2.03;1.33;;;;;;;;;;4995219;28;20175;-77
2022/06/09 09:54:54;;;;;;;4.47;1.90;;;;;;;;;;4995905;28;20228;-77
2022/06/09 09:57:21;;;;;;;2.83;1.63;;;;;;;;;;4993422;28;20196;-77
2022/06/09 09:59:52;;;;;;;4.30;1.80;;;;;;;;;;4994290;28;20183;-77
2022/06/09 10:10:54;;;;;;;3.27;1.80;;;;;;;;;;5012429;28;20189;-77
2022/06/09 10:13:27;;;;;;;4.70;2.17;;;;;;;;;;4992290;28;20189;-77
2022/06/09 10:15:53;;;;;;;3.23;1.80;;;;;;;;;;4988285;28;20179;-77
2022/06/09 10:18:20;;;;;;;4.83;1.60;;;;;;;;;;5009590;28;20238;-77
2022/06/09 10:21:01;;;;;;;6.57;1.70;;;;;;;;;;4988215;28;20252;-77
2022/06/09 10:23:33;;;;;;;4.10;1.60;;;;;;;;;;4991452;28;20186;-77
2022/06/09 10:26:01;;;;;;;3.10;2.40;;;;;;;;;;5005904;28;20180;-77
2022/06/09 10:28:35;;;;;;;3.07;1.30;;;;;;;;;;4993223;28;20192;-77
2022/06/09 10:31:19;;;;;;;2.53;1.30;;;;;;;;;;5005673;28;20164;-77
2022/06/09 10:33:49;;;;;;;1.63;1.30;;;;;;;;;;5004226;28;20181;-77
2022/06/09 10:36:17;;;;;;;1.20;1.10;;;;;;;;;;4992025;28;20177;-77
2022/06/09 10:38:44;;;;;;;3.30;1.40;;;;;;;;;;5005413;28;20181;-77
2022/06/09 10:41:11;;;;;;;3.57;1.33;;;;;;;;;;4992177;28;20250;-77
2022/06/09 10:43:44;;;;;;;7.87;1.70;;;;;;;;;;4979716;28;20181;-77
2022/06/09 10:46:09;;;;;;;3.63;1.50;;;;;;;;;;5011104;28;20230;-77
2022/06/09 10:55:14;;;;;;;3.40;1.90;;;;;;;;;;5005822;28;20211;-77
2022/06/09 10:57:43;;;;;;;4.33;1.80;;;;;;;;;;5004434;28;20249;-77
2022/06/09 11:00:14;;;;;;;2.03;1.77;;;;;;;;;;4990339;28;20192;-76
2022/06/09 11:02:40;;;;;;;4.33;2.10;;;;;;;;;;4992985;28;20169;-77
2022/06/09 11:05:05;;;;;;;4.33;1.70;;;;;;;;;;4992654;28;20194;-76
2022/06/09 11:07:49;;;;;;;7.13;2.50;;;;;;;;;;5008153;28;20226;-77
2022/06/09 11:10:26;;;;;;;3.80;1.90;;;;;;;;;;4994124;28;20231;-77
2022/06/09 11:12:59;;;;;;;2.53;1.73;;;;;;;;;;5004900;28;20182;-77
2022/06/09 11:15:31;;;;;;;2.93;2.00;;;;;;;;;;4994937;28;20267;-77
2022/06/09 11:18:08;;;;;;;4.70;1.53;;;;;;;;;;4991924;28;20254;-76
2022/06/09 11:20:34;;;;;;;5.37;1.87;;;;;;;;;;4985545;28;20189;-77
2022/06/09 11:23:08;;;;;;;3.30;1.87;;;;;;;;;;5006080;28;20180;-76
2022/06/09 11:25:40;;;;;;;5.57;2.33;;;;;;;;;;5005352;28;20188;-77
2022/06/09 11:28:17;;;;;;;2.83;1.80;;;;;;;;;;4990333;28;20204;-77
2022/06/09 11:30:52;;;;;;;3.23;1.70;;;;;;;;;;4989212;28;20260;-76
2022/06/09 11:33:36;;;;;;;2.37;1.50;;;;;;;;;;4986999;28;20183;-76
2022/06/09 11:36:07;;;;;;;4.83;2.00;;;;;;;;;;4987095;28;20184;-76
2022/06/09 11:38:49;;;;;;;3.17;1.30;;;;;;;;;;4992873;28;20208;-76
2022/06/09 11:41:25;;;;;;;2.77;1.20;;;;;;;;;;4988822;28;20238;-77
2022/06/09 11:44:09;;;;;;;1.80;1.30;;;;;;;;;;4988717;28;20213;-76
2022/06/09 11:46:37;;;;;;;7.53;1.87;;;;;;;;;;4984442;28;20230;-77
2022/06/09 11:49:13;;;;;;;3.53;1.67;;;;;;;;;;4988137;28;20194;-77
2022/06/09 11:51:40;;;;;;;5.03;1.90;;;;;;;;;;4982748;28;20175;-76
2022/06/09 11:54:07;;;;;;;5.37;1.33;;;;;;;;;;4997806;28;20183;-77
2022/06/09 11:56:40;;;;;;;2.33;1.37;;;;;;;;;;4986335;28;20174;-76
2022/06/09 11:59:11;;;;;;;1.77;1.50;;;;;;;;;;5000988;28;20195;-76
2022/06/09 12:01:39;;;;;;;1.17;1.07;;;;;;;;;;4988661;28;20392;-76
2022/06/09 12:04:08;;;;;;;4.40;1.50;;;;;;;;;;4992242;28;20195;-76
2022/06/09 12:06:40;;;;;;;1.73;1.20;;;;;;;;;;4991292;28;20190;-77
2022/06/09 12:09:24;;;;;;;3.67;1.33;;;;;;;;;;5008458;28;20294;-76
2022/06/09 12:12:02;;;;;;;3.40;1.80;;;;;;;;;;4992359;28;20201;-77
2022/06/09 12:14:33;;;;;;;1.73;1.60;;;;;;;;;;4988136;28;20223;-76
2022/06/09 12:16:59;;;;;;;1.53;1.00;;;;;;;;;;4990277;28;20223;-76
2022/06/09 12:19:35;;;;;;;2.00;1.33;;;;;;;;;;4985571;28;20173;-76
2022/06/09 12:22:19;;;;;;;5.20;1.63;;;;;;;;;;5000688;28;20220;-76
2022/06/09 12:25:03;;;;;;;2.23;1.20;;;;;;;;;;5007700;28;20183;-76
2022/06/09 12:27:34;;;;;;;1.40;1.30;;;;;;;;;;4989935;28;20194;-76
2022/06/09 12:29:59;;;;;;;2.50;1.50;;;;;;;;;;5002392;28;20218;-76
2022/06/09 12:32:36;;;;;;;2.97;1.30;;;;;;;;;;5011557;28;20174;-76
2022/06/09 12:35:01;;;;;;;3.03;2.00;;;;;;;;;;5096681;23;1189943;-79
2022/06/09 12:37:29;;;;;;;3.30;1.30;;;;;;;;;;5029738;28;20336;-80
2022/06/09 12:40:14;;;;;;;1.87;1.60;;;;;;;;;;4998274;28;20590;-80
2022/06/09 12:42:58;;;;;;;1.43;1.30;;;;;;;;;;5011574;28;20194;-80
2022/06/09 12:45:24;;;;;;;6.00;1.70;;;;;;;;;;5030555;28;20277;-80
2022/06/09 12:47:52;;;;;;;3.70;1.27;;;;;;;;;;4997215;28;20277;-80
2022/06/09 12:50:23;;;;;;;1.93;1.50;;;;;;;;;;5013730;28;20211;-80
2022/06/09 12:52:49;;;;;;;3.93;1.70;;;;;;;;;;5009790;28;20272;-79
2022/06/09 12:55:18;;;;;;;1.43;1.30;;;;;;;;;;5013827;28;20187;-80
2022/06/09 12:57:45;;;;;;;3.43;2.10;;;;;;;;;;5013829;28;20178;-79
2022/06/09 13:00:34;;;;;;;2.70;1.50;;;;;;;;;;5012747;28;20237;-80
2022/06/09 13:02:59;;;;;;;4.47;1.90;;;;;;;;;;5010455;28;20176;-80
2022/06/09 13:05:32;;;;;;;4.30;2.10;;;;;;;;;;5010067;28;20250;-80
2022/06/09 13:07:59;;;;;;;2.00;1.50;;;;;;;;;;5012287;28;20191;-79
2022/06/09 13:10:27;;;;;;;3.90;2.30;;;;;;;;;;5011872;28;20190;-79
2022/06/09 13:12:57;;;;;;;7.13;2.43;;;;;;;;;;5009058;28;20274;-79
2022/06/09 13:15:40;;;;;;;2.50;2.00;;;;;;;;;;5013805;28;20194;-79
2022/06/09 13:18:11;;;;;;;8.57;2.13;;;;;;;;;;5007288;28;20176;-79
2022/06/09 13:20:37;;;;;;;5.53;2.03;;;;;;;;;;5005984;28;20192;-79
2022/06/09 13:23:04;;;;;;;4.07;2.53;;;;;;;;;;5006496;28;20184;-79
2022/06/09 13:25:29;;;;;;;9.00;2.50;;;;;;;;;;5013385;28;20189;-79
2022/06/09 13:27:54;;;;;;;3.43;2.00;;;;;;;;;;5003627;28;20281;-79
2022/06/09 13:30:38;;;;;;;4.37;2.17;;;;;;;;;;5006748;28;20187;-78
2022/06/09 13:33:23;;;;;;;4.57;2.00;;;;;;;;;;5028984;28;20176;-78
2022/06/09 13:35:50;;;;;;;3.30;2.10;;;;;;;;;;5006159;28;20231;-79
2022/06/09 13:38:32;;;;;;;4.27;2.23;;;;;;;;;;5007940;28;20216;-79
2022/06/09 13:40:59;;;;;;;7.13;3.53;;;;;;;;;;5008208;28;20189;-79
2022/06/09 13:43:30;;;;;;;5.53;2.20;;;;;;;;;;5006152;28;20207;-79
2022/06/09 13:46:04;;;;;;;2.90;1.90;;;;;;;;;;5008270;28;20232;-79
2022/06/09 13:48:39;;;;;;;3.23;2.00;;;;;;;;;;5005508;28;20208;-79
2022/06/09 13:51:05;;;;;;;3.13;1.77;;;;;;;;;;5005293;28;20200;-79
2022/06/09 13:53:37;;;;;;;2.63;1.63;;;;;;;;;;5001699;28;20188;-79
2022/06/09 13:56:05;;;;;;;3.20;1.50;;;;;;;;;;5014148;28;20265;-80
2022/06/09 13:58:30;;;;;;;2.93;1.60;;;;;;;;;;5004744;28;20212;-79
2022/06/09 14:00:57;;;;;;;1.77;1.40;;;;;;;;;;5006971;28;20280;-80
2022/06/09 14:03:22;;;;;;;3.63;2.20;;;;;;;;;;5009294;28;20279;-79
2022/06/09 14:05:49;;;;;;;3.30;1.77;;;;;;;;;;5013077;28;20218;-78
2022/06/09 14:08:14;;;;;;;5.93;2.00;;;;;;;;;;5012253;28;20203;-80
2022/06/09 14:10:40;;;;;;;2.40;1.63;;;;;;;;;;5008063;28;20203;-80
2022/06/09 14:13:05;;;;;;;3.07;1.60;;;;;;;;;;5003502;28;20194;-79
2022/06/09 14:15:32;;;;;;;2.20;1.53;;;;;;;;;;5004167;28;20173;-80
2022/06/09 14:17:57;;;;;;;2.47;1.37;;;;;;;;;;5023840;28;20191;-80
2022/06/09 14:20:29;;;;;;;2.27;1.50;;;;;;;;;;5010885;28;20179;-80
2022/06/09 14:22:55;;;;;;;3.00;1.70;;;;;;;;;;5005967;28;20202;-80
2022/06/09 14:25:21;;;;;;;2.33;1.57;;;;;;;;;;5009360;28;20214;-80
2022/06/09 14:27:49;;;;;;;3.50;1.70;;;;;;;;;;5012306;28;20176;-80
2022/06/09 14:30:18;;;;;;;4.07;1.50;;;;;;;;;;5020572;28;20165;-80
2022/06/09 14:35:42;;;;;;;1.27;1.17;;;;;;;;;;4974239;28;20237;-80
2022/06/09 14:38:12;;;;;;;1.03;0.97;;;;;;;;;;4948562;28;20202;-81
2022/06/09 14:40:41;;;;;;;2.43;1.10;;;;;;;;;;4950912;28;20192;-80
2022/06/09 14:43:07;;;;;;;1.83;1.30;;;;;;;;;;4956196;28;20189;-80
2022/06/09 14:45:34;;;;;;;2.43;1.30;;;;;;;;;;4948990;28;20191;-80
2022/06/09 14:47:59;;;;;;;1.93;1.20;;;;;;;;;;4956040;28;20191;-80
2022/06/09 14:50:25;;;;;;;3.43;1.40;;;;;;;;;;4955249;28;20300;-80
2022/06/09 14:52:50;;;;;;;3.20;1.23;;;;;;;;;;4948815;28;20277;-80
2022/06/09 14:55:16;;;;;;;4.03;1.33;;;;;;;;;;4952663;28;20344;-80
2022/06/09 14:57:42;;;;;;;4.57;1.40;;;;;;;;;;4955382;28;20178;-80
2022/06/09 15:00:14;;;;;;;3.60;1.57;;;;;;;;;;4967857;28;20197;-80
2022/06/09 15:02:39;;;;;;;3.50;1.40;;;;;;;;;;4975114;28;20199;-81
2022/06/09 15:05:06;;;;;;;2.73;1.47;;;;;;;;;;4963756;28;20193;-81
2022/06/09 15:07:32;;;;;;;2.70;1.30;;;;;;;;;;4955048;28;20180;-80
2022/06/09 15:09:57;;;;;;;2.17;1.50;;;;;;;;;;4951133;29;20266;-81
2022/06/09 15:12:23;;;;;;;3.57;1.57;;;;;;;;;;4963144;28;20526;-81
2022/06/09 15:14:48;;;;;;;5.27;1.50;;;;;;;;;;5008884;28;20237;-81